sensor_id;sensor_type;location;lat;lon;timestamp;P1;durP1;ratioP1;P2;durP2;ratioP2
72559;SDS011;62987;52.382;9.752;2024-02-04T00:00:54;8.07;;;3.25;;
72559;SDS011;62987;52.382;9.752;2024-02-04T00:03:23;8.90;;;3.03;;
72559;SDS011;62987;52.382;9.752;2024-02-04T00:05:52;7.82;;;3.22;;
72559;SDS011;62987;52.382;9.752;2024-02-04T00:08:20;6.18;;;2.80;;
72559;SDS011;62987;52.382;9.752;2024-02-04T00:10:49;9.75;;;3.45;;
72559;SDS011;62987;52.382;9.752;2024-02-04T00:13:18;10.13;;;3.28;;
72559;SDS011;62987;52.382;9.752;2024-02-04T00:15:48;9.38;;;3.38;;
72559;SDS011;62987;52.382;9.752;2024-02-04T00:18:16;6.00;;;3.03;;
72559;SDS011;62987;52.382;9.752;2024-02-04T00:20:45;11.48;;;3.00;;
72559;SDS011;62987;52.382;9.752;2024-02-04T00:23:14;7.55;;;3.47;;
72559;SDS011;62987;52.382;9.752;2024-02-04T00:25:42;9.15;;;3.20;;
72559;SDS011;62987;52.382;9.752;2024-02-04T00:28:11;8.60;;;2.75;;
72559;SDS011;62987;52.382;9.752;2024-02-04T00:30:40;8.13;;;3.35;;
72559;SDS011;62987;52.382;9.752;2024-02-04T00:33:10;7.22;;;2.92;;
72559;SDS011;62987;52.382;9.752;2024-02-04T00:35:39;10.15;;;3.65;;
72559;SDS011;62987;52.382;9.752;2024-02-04T00:38:07;7.97;;;3.72;;
72559;SDS011;62987;52.382;9.752;2024-02-04T00:40:36;9.80;;;3.30;;
72559;SDS011;62987;52.382;9.752;2024-02-04T00:43:05;8.10;;;3.80;;
72559;SDS011;62987;52.382;9.752;2024-02-04T00:45:34;9.23;;;3.45;;
72559;SDS011;62987;52.382;9.752;2024-02-04T00:48:03;8.82;;;4.40;;
72559;SDS011;62987;52.382;9.752;2024-02-04T00:50:33;7.93;;;3.88;;
72559;SDS011;62987;52.382;9.752;2024-02-04T00:53:02;7.95;;;4.13;;
72559;SDS011;62987;52.382;9.752;2024-02-04T00:55:31;11.13;;;4.97;;
72559;SDS011;62987;52.382;9.752;2024-02-04T00:57:59;6.75;;;3.42;;
72559;SDS011;62987;52.382;9.752;2024-02-04T01:00:29;7.78;;;3.92;;
72559;SDS011;62987;52.382;9.752;2024-02-04T01:02:58;9.32;;;3.78;;
72559;SDS011;62987;52.382;9.752;2024-02-04T01:05:27;8.48;;;3.78;;
72559;SDS011;62987;52.382;9.752;2024-02-04T01:07:57;8.18;;;4.05;;
72559;SDS011;62987;52.382;9.752;2024-02-04T01:10:27;10.82;;;5.05;;
72559;SDS011;62987;52.382;9.752;2024-02-04T01:12:55;13.32;;;5.38;;
72559;SDS011;62987;52.382;9.752;2024-02-04T01:15:24;9.70;;;4.32;;
72559;SDS011;62987;52.382;9.752;2024-02-04T01:17:54;12.50;;;4.95;;
72559;SDS011;62987;52.382;9.752;2024-02-04T01:20:22;9.95;;;3.95;;
72559;SDS011;62987;52.382;9.752;2024-02-04T01:22:51;13.25;;;4.95;;
72559;SDS011;62987;52.382;9.752;2024-02-04T01:25:21;10.63;;;4.45;;
72559;SDS011;62987;52.382;9.752;2024-02-04T01:27:50;9.57;;;4.43;;
72559;SDS011;62987;52.382;9.752;2024-02-04T01:30:19;7.93;;;3.95;;
72559;SDS011;62987;52.382;9.752;2024-02-04T01:32:49;12.65;;;4.20;;
72559;SDS011;62987;52.382;9.752;2024-02-04T01:35:18;9.88;;;4.25;;
72559;SDS011;62987;52.382;9.752;2024-02-04T01:37:47;9.75;;;3.83;;
72559;SDS011;62987;52.382;9.752;2024-02-04T01:40:16;11.32;;;4.32;;
72559;SDS011;62987;52.382;9.752;2024-02-04T01:42:46;14.73;;;5.03;;
72559;SDS011;62987;52.382;9.752;2024-02-04T01:45:15;10.35;;;4.35;;
72559;SDS011;62987;52.382;9.752;2024-02-04T01:47:44;13.85;;;4.85;;
72559;SDS011;62987;52.382;9.752;2024-02-04T01:50:13;10.90;;;5.30;;
72559;SDS011;62987;52.382;9.752;2024-02-04T01:52:42;11.73;;;5.57;;
72559;SDS011;62987;52.382;9.752;2024-02-04T01:55:12;9.60;;;4.70;;
72559;SDS011;62987;52.382;9.752;2024-02-04T01:57:41;11.52;;;4.80;;
72559;SDS011;62987;52.382;9.752;2024-02-04T02:00:12;9.63;;;5.53;;
72559;SDS011;62987;52.382;9.752;2024-02-04T02:02:41;14.70;;;5.93;;
72559;SDS011;62987;52.382;9.752;2024-02-04T02:05:14;10.93;;;4.78;;
72559;SDS011;62987;52.382;9.752;2024-02-04T02:07:42;14.07;;;5.70;;
72559;SDS011;62987;52.382;9.752;2024-02-04T02:10:13;15.18;;;6.20;;
72559;SDS011;62987;52.382;9.752;2024-02-04T02:12:43;11.60;;;5.20;;
72559;SDS011;62987;52.382;9.752;2024-02-04T02:15:21;16.45;;;5.68;;
72559;SDS011;62987;52.382;9.752;2024-02-04T02:17:55;11.80;;;6.32;;
72559;SDS011;62987;52.382;9.752;2024-02-04T02:20:29;11.63;;;5.38;;
72559;SDS011;62987;52.382;9.752;2024-02-04T02:23:06;13.13;;;5.88;;
72559;SDS011;62987;52.382;9.752;2024-02-04T02:25:37;9.27;;;4.85;;
72559;SDS011;62987;52.382;9.752;2024-02-04T02:28:06;16.67;;;6.57;;
72559;SDS011;62987;52.382;9.752;2024-02-04T02:30:35;14.43;;;5.35;;
72559;SDS011;62987;52.382;9.752;2024-02-04T02:33:04;11.68;;;5.72;;
72559;SDS011;62987;52.382;9.752;2024-02-04T02:35:35;17.27;;;6.43;;
72559;SDS011;62987;52.382;9.752;2024-02-04T02:38:05;14.70;;;6.22;;
72559;SDS011;62987;52.382;9.752;2024-02-04T02:40:43;12.23;;;6.13;;
72559;SDS011;62987;52.382;9.752;2024-02-04T02:43:15;16.23;;;5.65;;
72559;SDS011;62987;52.382;9.752;2024-02-04T02:45:44;12.63;;;6.13;;
72559;SDS011;62987;52.382;9.752;2024-02-04T02:48:13;9.73;;;3.88;;
72559;SDS011;62987;52.382;9.752;2024-02-04T02:50:43;13.02;;;5.95;;
72559;SDS011;62987;52.382;9.752;2024-02-04T02:53:12;12.30;;;5.15;;
72559;SDS011;62987;52.382;9.752;2024-02-04T02:55:42;12.60;;;5.20;;
72559;SDS011;62987;52.382;9.752;2024-02-04T02:58:13;11.00;;;5.18;;
72559;SDS011;62987;52.382;9.752;2024-02-04T03:00:42;14.25;;;5.18;;
72559;SDS011;62987;52.382;9.752;2024-02-04T03:03:12;11.00;;;5.45;;
72559;SDS011;62987;52.382;9.752;2024-02-04T03:05:41;9.13;;;4.93;;
72559;SDS011;62987;52.382;9.752;2024-02-04T03:08:09;13.18;;;5.90;;
72559;SDS011;62987;52.382;9.752;2024-02-04T03:10:38;14.52;;;5.38;;
72559;SDS011;62987;52.382;9.752;2024-02-04T03:13:08;13.52;;;5.32;;
72559;SDS011;62987;52.382;9.752;2024-02-04T03:15:37;11.52;;;5.90;;
72559;SDS011;62987;52.382;9.752;2024-02-04T03:18:08;16.27;;;6.45;;
72559;SDS011;62987;52.382;9.752;2024-02-04T03:20:36;15.18;;;5.53;;
72559;SDS011;62987;52.382;9.752;2024-02-04T03:23:05;15.60;;;6.95;;
72559;SDS011;62987;52.382;9.752;2024-02-04T03:25:33;16.90;;;6.13;;
72559;SDS011;62987;52.382;9.752;2024-02-04T03:28:02;17.70;;;6.40;;
72559;SDS011;62987;52.382;9.752;2024-02-04T03:30:33;12.90;;;5.78;;
72559;SDS011;62987;52.382;9.752;2024-02-04T03:33:01;13.93;;;5.80;;
72559;SDS011;62987;52.382;9.752;2024-02-04T03:35:31;13.32;;;5.55;;
72559;SDS011;62987;52.382;9.752;2024-02-04T03:38:03;13.00;;;5.90;;
72559;SDS011;62987;52.382;9.752;2024-02-04T03:40:32;13.48;;;6.22;;
72559;SDS011;62987;52.382;9.752;2024-02-04T03:43:01;9.43;;;4.60;;
72559;SDS011;62987;52.382;9.752;2024-02-04T03:45:30;15.07;;;5.97;;
72559;SDS011;62987;52.382;9.752;2024-02-04T03:48:00;10.30;;;4.85;;
72559;SDS011;62987;52.382;9.752;2024-02-04T03:50:29;11.18;;;4.57;;
72559;SDS011;62987;52.382;9.752;2024-02-04T03:52:57;11.38;;;5.38;;
72559;SDS011;62987;52.382;9.752;2024-02-04T03:55:26;15.00;;;5.25;;
72559;SDS011;62987;52.382;9.752;2024-02-04T03:57:54;13.18;;;5.00;;
72559;SDS011;62987;52.382;9.752;2024-02-04T04:00:24;12.65;;;5.13;;
72559;SDS011;62987;52.382;9.752;2024-02-04T04:02:53;10.00;;;4.47;;
72559;SDS011;62987;52.382;9.752;2024-02-04T04:05:23;14.65;;;5.10;;
72559;SDS011;62987;52.382;9.752;2024-02-04T04:07:53;11.80;;;5.00;;
72559;SDS011;62987;52.382;9.752;2024-02-04T04:10:22;11.48;;;5.20;;
72559;SDS011;62987;52.382;9.752;2024-02-04T04:12:50;16.30;;;5.90;;
72559;SDS011;62987;52.382;9.752;2024-02-04T04:15:18;12.30;;;4.90;;
72559;SDS011;62987;52.382;9.752;2024-02-04T04:17:47;9.68;;;4.68;;
72559;SDS011;62987;52.382;9.752;2024-02-04T04:20:16;10.07;;;4.90;;
72559;SDS011;62987;52.382;9.752;2024-02-04T04:22:45;12.38;;;4.70;;
72559;SDS011;62987;52.382;9.752;2024-02-04T04:25:14;13.60;;;5.72;;
72559;SDS011;62987;52.382;9.752;2024-02-04T04:27:43;10.23;;;4.80;;
72559;SDS011;62987;52.382;9.752;2024-02-04T04:30:12;11.65;;;4.93;;
72559;SDS011;62987;52.382;9.752;2024-02-04T04:32:41;13.35;;;4.40;;
72559;SDS011;62987;52.382;9.752;2024-02-04T04:35:09;11.50;;;4.57;;
72559;SDS011;62987;52.382;9.752;2024-02-04T04:37:38;11.32;;;4.45;;
72559;SDS011;62987;52.382;9.752;2024-02-04T04:40:08;14.65;;;5.68;;
72559;SDS011;62987;52.382;9.752;2024-02-04T04:42:38;13.18;;;5.60;;
72559;SDS011;62987;52.382;9.752;2024-02-04T04:45:07;10.55;;;4.95;;
72559;SDS011;62987;52.382;9.752;2024-02-04T04:47:37;10.10;;;4.50;;
72559;SDS011;62987;52.382;9.752;2024-02-04T04:50:06;9.23;;;4.55;;
72559;SDS011;62987;52.382;9.752;2024-02-04T04:52:35;14.15;;;4.97;;
72559;SDS011;62987;52.382;9.752;2024-02-04T04:55:04;15.13;;;5.45;;
72559;SDS011;62987;52.382;9.752;2024-02-04T04:57:34;14.43;;;5.22;;
72559;SDS011;62987;52.382;9.752;2024-02-04T05:00:03;10.02;;;4.53;;
72559;SDS011;62987;52.382;9.752;2024-02-04T05:02:36;12.00;;;5.53;;
72559;SDS011;62987;52.382;9.752;2024-02-04T05:05:06;11.07;;;5.03;;
72559;SDS011;62987;52.382;9.752;2024-02-04T05:07:35;11.02;;;5.18;;
72559;SDS011;62987;52.382;9.752;2024-02-04T05:10:04;13.27;;;5.40;;
72559;SDS011;62987;52.382;9.752;2024-02-04T05:12:35;14.30;;;5.72;;
72559;SDS011;62987;52.382;9.752;2024-02-04T05:15:04;10.07;;;4.85;;
72559;SDS011;62987;52.382;9.752;2024-02-04T05:17:33;15.95;;;6.22;;
72559;SDS011;62987;52.382;9.752;2024-02-04T05:20:02;12.18;;;5.10;;
72559;SDS011;62987;52.382;9.752;2024-02-04T05:22:31;16.50;;;6.43;;
72559;SDS011;62987;52.382;9.752;2024-02-04T05:25:00;11.55;;;6.43;;
72559;SDS011;62987;52.382;9.752;2024-02-04T05:27:28;11.55;;;4.93;;
72559;SDS011;62987;52.382;9.752;2024-02-04T05:29:58;18.05;;;6.75;;
72559;SDS011;62987;52.382;9.752;2024-02-04T05:32:27;16.67;;;6.05;;
72559;SDS011;62987;52.382;9.752;2024-02-04T05:34:56;14.80;;;6.10;;
72559;SDS011;62987;52.382;9.752;2024-02-04T05:37:24;15.23;;;6.20;;
72559;SDS011;62987;52.382;9.752;2024-02-04T05:39:53;16.58;;;6.75;;
72559;SDS011;62987;52.382;9.752;2024-02-04T05:42:22;13.50;;;5.60;;
72559;SDS011;62987;52.382;9.752;2024-02-04T05:44:51;13.40;;;5.85;;
72559;SDS011;62987;52.382;9.752;2024-02-04T05:47:20;15.63;;;6.07;;
72559;SDS011;62987;52.382;9.752;2024-02-04T05:49:49;19.38;;;6.22;;
72559;SDS011;62987;52.382;9.752;2024-02-04T05:52:18;20.55;;;6.93;;
72559;SDS011;62987;52.382;9.752;2024-02-04T05:54:46;17.85;;;6.13;;
72559;SDS011;62987;52.382;9.752;2024-02-04T05:57:15;12.75;;;5.10;;
72559;SDS011;62987;52.382;9.752;2024-02-04T05:59:43;9.00;;;4.40;;
72559;SDS011;62987;52.382;9.752;2024-02-04T06:02:13;9.40;;;4.50;;
72559;SDS011;62987;52.382;9.752;2024-02-04T06:04:44;7.82;;;3.53;;
72559;SDS011;62987;52.382;9.752;2024-02-04T06:07:13;10.98;;;4.15;;
72559;SDS011;62987;52.382;9.752;2024-02-04T06:09:42;8.68;;;4.80;;
72559;SDS011;62987;52.382;9.752;2024-02-04T06:12:10;8.13;;;3.22;;
72559;SDS011;62987;52.382;9.752;2024-02-04T06:14:39;9.80;;;4.18;;
72559;SDS011;62987;52.382;9.752;2024-02-04T06:17:08;8.48;;;3.85;;
72559;SDS011;62987;52.382;9.752;2024-02-04T06:19:37;8.05;;;4.53;;
72559;SDS011;62987;52.382;9.752;2024-02-04T06:22:07;11.25;;;3.63;;
72559;SDS011;62987;52.382;9.752;2024-02-04T06:24:36;10.23;;;3.78;;
72559;SDS011;62987;52.382;9.752;2024-02-04T06:27:07;21.27;;;4.63;;
72559;SDS011;62987;52.382;9.752;2024-02-04T06:29:36;8.98;;;4.15;;
72559;SDS011;62987;52.382;9.752;2024-02-04T06:32:06;5.97;;;2.83;;
72559;SDS011;62987;52.382;9.752;2024-02-04T06:34:34;7.93;;;3.20;;
72559;SDS011;62987;52.382;9.752;2024-02-04T06:37:03;9.88;;;3.25;;
72559;SDS011;62987;52.382;9.752;2024-02-04T06:39:34;10.00;;;3.35;;
72559;SDS011;62987;52.382;9.752;2024-02-04T06:42:02;5.80;;;2.65;;
72559;SDS011;62987;52.382;9.752;2024-02-04T06:44:31;9.75;;;2.80;;
72559;SDS011;62987;52.382;9.752;2024-02-04T06:47:00;6.57;;;2.90;;
72559;SDS011;62987;52.382;9.752;2024-02-04T06:49:29;5.68;;;2.50;;
72559;SDS011;62987;52.382;9.752;2024-02-04T06:51:57;10.52;;;2.05;;
72559;SDS011;62987;52.382;9.752;2024-02-04T06:54:26;3.72;;;1.67;;
72559;SDS011;62987;52.382;9.752;2024-02-04T06:56:56;7.60;;;1.50;;
72559;SDS011;62987;52.382;9.752;2024-02-04T06:59:24;4.35;;;1.70;;
72559;SDS011;62987;52.382;9.752;2024-02-04T07:01:53;5.75;;;2.13;;
72559;SDS011;62987;52.382;9.752;2024-02-04T07:04:21;8.57;;;2.72;;
72559;SDS011;62987;52.382;9.752;2024-02-04T07:06:51;3.63;;;1.73;;
72559;SDS011;62987;52.382;9.752;2024-02-04T07:09:20;9.02;;;2.22;;
72559;SDS011;62987;52.382;9.752;2024-02-04T07:11:48;7.50;;;2.00;;
72559;SDS011;62987;52.382;9.752;2024-02-04T07:14:18;5.75;;;1.75;;
72559;SDS011;62987;52.382;9.752;2024-02-04T07:16:46;4.97;;;1.80;;
72559;SDS011;62987;52.382;9.752;2024-02-04T07:19:15;5.53;;;2.05;;
72559;SDS011;62987;52.382;9.752;2024-02-04T07:21:46;4.15;;;2.03;;
72559;SDS011;62987;52.382;9.752;2024-02-04T07:24:15;3.92;;;1.80;;
72559;SDS011;62987;52.382;9.752;2024-02-04T07:26:48;8.43;;;2.10;;
72559;SDS011;62987;52.382;9.752;2024-02-04T07:29:18;4.38;;;2.10;;
72559;SDS011;62987;52.382;9.752;2024-02-04T07:31:46;5.93;;;2.45;;
72559;SDS011;62987;52.382;9.752;2024-02-04T07:34:15;8.07;;;2.53;;
72559;SDS011;62987;52.382;9.752;2024-02-04T07:36:43;5.30;;;2.13;;
72559;SDS011;62987;52.382;9.752;2024-02-04T07:39:12;4.80;;;1.83;;
72559;SDS011;62987;52.382;9.752;2024-02-04T07:41:41;7.57;;;2.10;;
72559;SDS011;62987;52.382;9.752;2024-02-04T07:44:09;6.35;;;2.50;;
72559;SDS011;62987;52.382;9.752;2024-02-04T07:46:39;4.97;;;1.83;;
72559;SDS011;62987;52.382;9.752;2024-02-04T07:49:08;4.72;;;2.00;;
72559;SDS011;62987;52.382;9.752;2024-02-04T07:51:36;6.90;;;2.40;;
72559;SDS011;62987;52.382;9.752;2024-02-04T07:54:05;4.53;;;1.50;;
72559;SDS011;62987;52.382;9.752;2024-02-04T07:56:33;4.97;;;1.70;;
72559;SDS011;62987;52.382;9.752;2024-02-04T07:59:02;5.78;;;1.70;;
72559;SDS011;62987;52.382;9.752;2024-02-04T08:01:31;7.25;;;1.50;;
72559;SDS011;62987;52.382;9.752;2024-02-04T08:04:06;4.70;;;1.67;;
72559;SDS011;62987;52.382;9.752;2024-02-04T08:06:38;3.97;;;1.42;;
72559;SDS011;62987;52.382;9.752;2024-02-04T08:09:07;5.55;;;1.52;;
72559;SDS011;62987;52.382;9.752;2024-02-04T08:11:35;3.85;;;1.50;;
72559;SDS011;62987;52.382;9.752;2024-02-04T08:14:04;6.55;;;1.80;;
72559;SDS011;62987;52.382;9.752;2024-02-04T08:16:33;3.55;;;1.40;;
72559;SDS011;62987;52.382;9.752;2024-02-04T08:19:01;4.50;;;1.55;;
72559;SDS011;62987;52.382;9.752;2024-02-04T08:21:34;4.53;;;1.73;;
72559;SDS011;62987;52.382;9.752;2024-02-04T08:24:02;5.82;;;1.50;;
72559;SDS011;62987;52.382;9.752;2024-02-04T08:26:31;5.13;;;1.55;;
72559;SDS011;62987;52.382;9.752;2024-02-04T08:29:00;4.97;;;2.03;;
72559;SDS011;62987;52.382;9.752;2024-02-04T08:31:29;4.15;;;1.00;;
72559;SDS011;62987;52.382;9.752;2024-02-04T08:33:58;6.65;;;1.25;;
72559;SDS011;62987;52.382;9.752;2024-02-04T08:36:28;6.00;;;1.50;;
72559;SDS011;62987;52.382;9.752;2024-02-04T08:38:59;5.30;;;1.38;;
72559;SDS011;62987;52.382;9.752;2024-02-04T08:41:28;4.07;;;1.02;;
72559;SDS011;62987;52.382;9.752;2024-02-04T08:43:56;4.90;;;1.02;;
72559;SDS011;62987;52.382;9.752;2024-02-04T08:46:28;4.65;;;1.65;;
72559;SDS011;62987;52.382;9.752;2024-02-04T08:48:57;4.32;;;1.10;;
72559;SDS011;62987;52.382;9.752;2024-02-04T08:51:26;2.88;;;1.00;;
72559;SDS011;62987;52.382;9.752;2024-02-04T08:53:57;6.95;;;1.35;;
72559;SDS011;62987;52.382;9.752;2024-02-04T08:56:27;7.38;;;1.20;;
72559;SDS011;62987;52.382;9.752;2024-02-04T08:58:56;5.95;;;0.85;;
72559;SDS011;62987;52.382;9.752;2024-02-04T09:01:24;5.85;;;1.58;;
72559;SDS011;62987;52.382;9.752;2024-02-04T09:03:53;6.53;;;1.50;;
72559;SDS011;62987;52.382;9.752;2024-02-04T09:06:21;5.55;;;1.40;;
72559;SDS011;62987;52.382;9.752;2024-02-04T09:08:50;4.55;;;1.80;;
72559;SDS011;62987;52.382;9.752;2024-02-04T09:11:19;3.53;;;1.20;;
72559;SDS011;62987;52.382;9.752;2024-02-04T09:13:49;6.90;;;1.50;;
72559;SDS011;62987;52.382;9.752;2024-02-04T09:16:17;7.45;;;1.42;;
72559;SDS011;62987;52.382;9.752;2024-02-04T09:18:46;10.48;;;2.28;;
72559;SDS011;62987;52.382;9.752;2024-02-04T09:21:15;4.47;;;1.20;;
72559;SDS011;62987;52.382;9.752;2024-02-04T09:23:44;7.93;;;1.33;;
72559;SDS011;62987;52.382;9.752;2024-02-04T09:26:12;4.70;;;1.40;;
72559;SDS011;62987;52.382;9.752;2024-02-04T09:28:45;5.25;;;1.75;;
72559;SDS011;62987;52.382;9.752;2024-02-04T09:31:15;7.07;;;1.20;;
72559;SDS011;62987;52.382;9.752;2024-02-04T09:33:44;4.13;;;1.42;;
72559;SDS011;62987;52.382;9.752;2024-02-04T09:36:13;3.90;;;1.10;;
72559;SDS011;62987;52.382;9.752;2024-02-04T09:38:43;7.60;;;1.50;;
72559;SDS011;62987;52.382;9.752;2024-02-04T09:41:12;8.65;;;1.50;;
72559;SDS011;62987;52.382;9.752;2024-02-04T09:43:40;10.05;;;1.70;;
72559;SDS011;62987;52.382;9.752;2024-02-04T09:46:09;5.28;;;1.30;;
72559;SDS011;62987;52.382;9.752;2024-02-04T09:48:40;3.33;;;1.15;;
72559;SDS011;62987;52.382;9.752;2024-02-04T09:52:06;5.40;;;1.02;;
72559;SDS011;62987;52.382;9.752;2024-02-04T09:54:38;3.70;;;1.02;;
72559;SDS011;62987;52.382;9.752;2024-02-04T09:57:12;3.05;;;1.08;;
72559;SDS011;62987;52.382;9.752;2024-02-04T09:59:43;2.65;;;1.65;;
72559;SDS011;62987;52.382;9.752;2024-02-04T10:02:14;6.45;;;1.02;;
72559;SDS011;62987;52.382;9.752;2024-02-04T10:04:47;8.90;;;1.50;;
72559;SDS011;62987;52.382;9.752;2024-02-04T10:07:19;6.38;;;1.10;;
72559;SDS011;62987;52.382;9.752;2024-02-04T10:09:48;5.57;;;1.65;;
72559;SDS011;62987;52.382;9.752;2024-02-04T10:12:16;4.32;;;1.10;;
72559;SDS011;62987;52.382;9.752;2024-02-04T10:14:45;8.00;;;1.88;;
72559;SDS011;62987;52.382;9.752;2024-02-04T10:17:13;7.28;;;1.38;;
72559;SDS011;62987;52.382;9.752;2024-02-04T10:19:43;6.35;;;1.55;;
72559;SDS011;62987;52.382;9.752;2024-02-04T10:22:12;4.63;;;1.15;;
72559;SDS011;62987;52.382;9.752;2024-02-04T10:24:42;8.73;;;2.20;;
72559;SDS011;62987;52.382;9.752;2024-02-04T10:27:14;6.82;;;1.35;;
72559;SDS011;62987;52.382;9.752;2024-02-04T10:29:55;7.35;;;1.70;;
72559;SDS011;62987;52.382;9.752;2024-02-04T10:32:24;3.60;;;0.98;;
72559;SDS011;62987;52.382;9.752;2024-02-04T10:34:54;7.43;;;1.33;;
72559;SDS011;62987;52.382;9.752;2024-02-04T10:37:23;9.40;;;1.75;;
72559;SDS011;62987;52.382;9.752;2024-02-04T10:39:58;7.88;;;1.05;;
72559;SDS011;62987;52.382;9.752;2024-02-04T10:42:30;4.65;;;1.27;;
72559;SDS011;62987;52.382;9.752;2024-02-04T10:45:04;7.47;;;1.73;;
72559;SDS011;62987;52.382;9.752;2024-02-04T10:47:38;3.15;;;0.75;;
72559;SDS011;62987;52.382;9.752;2024-02-04T10:50:07;4.18;;;1.50;;
72559;SDS011;62987;52.382;9.752;2024-02-04T10:52:39;4.72;;;1.50;;
72559;SDS011;62987;52.382;9.752;2024-02-04T10:55:10;4.45;;;1.10;;
72559;SDS011;62987;52.382;9.752;2024-02-04T10:57:39;4.22;;;1.38;;
72559;SDS011;62987;52.382;9.752;2024-02-04T11:00:09;10.35;;;2.60;;
72559;SDS011;62987;52.382;9.752;2024-02-04T11:02:39;3.88;;;1.23;;
72559;SDS011;62987;52.382;9.752;2024-02-04T11:05:12;4.05;;;1.38;;
72559;SDS011;62987;52.382;9.752;2024-02-04T11:07:44;4.00;;;1.38;;
72559;SDS011;62987;52.382;9.752;2024-02-04T11:10:15;5.05;;;1.00;;
72559;SDS011;62987;52.382;9.752;2024-02-04T11:12:45;5.65;;;1.05;;
72559;SDS011;62987;52.382;9.752;2024-02-04T11:15:17;4.45;;;1.10;;
72559;SDS011;62987;52.382;9.752;2024-02-04T11:18:13;8.07;;;1.83;;
72559;SDS011;62987;52.382;9.752;2024-02-04T11:23:35;7.03;;;1.40;;
72559;SDS011;62987;52.382;9.752;2024-02-04T11:26:10;4.43;;;1.65;;
72559;SDS011;62987;52.382;9.752;2024-02-04T11:28:40;7.22;;;2.05;;
72559;SDS011;62987;52.382;9.752;2024-02-04T11:31:13;5.57;;;1.27;;
72559;SDS011;62987;52.382;9.752;2024-02-04T11:33:44;11.40;;;1.70;;
72559;SDS011;62987;52.382;9.752;2024-02-04T11:36:13;7.32;;;1.85;;
72559;SDS011;62987;52.382;9.752;2024-02-04T11:38:49;4.82;;;1.55;;
72559;SDS011;62987;52.382;9.752;2024-02-04T11:41:22;2.53;;;1.38;;
72559;SDS011;62987;52.382;9.752;2024-02-04T11:46:27;2.72;;;1.05;;
72559;SDS011;62987;52.382;9.752;2024-02-04T11:49:00;3.50;;;1.52;;
72559;SDS011;62987;52.382;9.752;2024-02-04T11:51:30;4.43;;;1.40;;
72559;SDS011;62987;52.382;9.752;2024-02-04T11:54:00;4.72;;;1.17;;
72559;SDS011;62987;52.382;9.752;2024-02-04T11:56:32;4.80;;;1.20;;
72559;SDS011;62987;52.382;9.752;2024-02-04T11:59:02;3.55;;;1.20;;
72559;SDS011;62987;52.382;9.752;2024-02-04T12:01:32;5.28;;;1.80;;
72559;SDS011;62987;52.382;9.752;2024-02-04T12:04:08;2.70;;;1.13;;
72559;SDS011;62987;52.382;9.752;2024-02-04T12:06:38;2.33;;;1.08;;
72559;SDS011;62987;52.382;9.752;2024-02-04T12:09:09;2.65;;;0.82;;
72559;SDS011;62987;52.382;9.752;2024-02-04T12:11:38;5.88;;;1.63;;
72559;SDS011;62987;52.382;9.752;2024-02-04T12:14:07;4.53;;;1.00;;
72559;SDS011;62987;52.382;9.752;2024-02-04T12:16:36;5.45;;;1.00;;
72559;SDS011;62987;52.382;9.752;2024-02-04T12:19:06;2.40;;;0.80;;
72559;SDS011;62987;52.382;9.752;2024-02-04T12:21:35;5.20;;;1.40;;
72559;SDS011;62987;52.382;9.752;2024-02-04T12:24:05;4.15;;;1.42;;
72559;SDS011;62987;52.382;9.752;2024-02-04T12:26:36;5.53;;;1.05;;
72559;SDS011;62987;52.382;9.752;2024-02-04T12:32:01;3.97;;;1.27;;
72559;SDS011;62987;52.382;9.752;2024-02-04T12:37:16;7.68;;;1.40;;
72559;SDS011;62987;52.382;9.752;2024-02-04T12:39:45;4.60;;;1.50;;
72559;SDS011;62987;52.382;9.752;2024-02-04T12:42:14;4.50;;;1.25;;
72559;SDS011;62987;52.382;9.752;2024-02-04T12:44:46;6.82;;;1.30;;
72559;SDS011;62987;52.382;9.752;2024-02-04T12:47:18;7.45;;;2.05;;
72559;SDS011;62987;52.382;9.752;2024-02-04T12:49:47;4.50;;;1.40;;
72559;SDS011;62987;52.382;9.752;2024-02-04T12:52:19;5.32;;;1.30;;
72559;SDS011;62987;52.382;9.752;2024-02-04T13:01:00;3.30;;;0.98;;
72559;SDS011;62987;52.382;9.752;2024-02-04T13:03:32;3.75;;;1.45;;
72559;SDS011;62987;52.382;9.752;2024-02-04T13:06:00;5.03;;;1.50;;
72559;SDS011;62987;52.382;9.752;2024-02-04T13:08:29;3.53;;;1.08;;
72559;SDS011;62987;52.382;9.752;2024-02-04T13:10:58;5.78;;;1.30;;
72559;SDS011;62987;52.382;9.752;2024-02-04T13:13:27;3.55;;;1.17;;
72559;SDS011;62987;52.382;9.752;2024-02-04T13:15:55;6.47;;;1.52;;
72559;SDS011;62987;52.382;9.752;2024-02-04T13:18:25;5.60;;;1.15;;
72559;SDS011;62987;52.382;9.752;2024-02-04T13:20:54;3.22;;;1.30;;
72559;SDS011;62987;52.382;9.752;2024-02-04T13:23:23;2.20;;;1.02;;
72559;SDS011;62987;52.382;9.752;2024-02-04T13:25:51;2.83;;;1.10;;
72559;SDS011;62987;52.382;9.752;2024-02-04T13:28:20;5.07;;;1.27;;
72559;SDS011;62987;52.382;9.752;2024-02-04T13:30:49;3.30;;;1.00;;
72559;SDS011;62987;52.382;9.752;2024-02-04T13:33:18;3.55;;;1.40;;
72559;SDS011;62987;52.382;9.752;2024-02-04T13:35:48;3.17;;;1.38;;
72559;SDS011;62987;52.382;9.752;2024-02-04T13:38:17;4.25;;;1.05;;
72559;SDS011;62987;52.382;9.752;2024-02-04T13:40:46;4.38;;;1.08;;
72559;SDS011;62987;52.382;9.752;2024-02-04T13:43:14;2.10;;;0.80;;
72559;SDS011;62987;52.382;9.752;2024-02-04T13:45:43;3.13;;;1.02;;
72559;SDS011;62987;52.382;9.752;2024-02-04T13:48:12;3.00;;;1.40;;
72559;SDS011;62987;52.382;9.752;2024-02-04T13:50:41;2.70;;;0.85;;
72559;SDS011;62987;52.382;9.752;2024-02-04T13:53:13;1.50;;;0.80;;
72559;SDS011;62987;52.382;9.752;2024-02-04T13:55:42;6.80;;;1.17;;
72559;SDS011;62987;52.382;9.752;2024-02-04T13:58:12;4.57;;;1.38;;
72559;SDS011;62987;52.382;9.752;2024-02-04T14:00:41;3.42;;;1.60;;
72559;SDS011;62987;52.382;9.752;2024-02-04T14:03:10;4.90;;;1.60;;
72559;SDS011;62987;52.382;9.752;2024-02-04T14:05:40;2.55;;;1.15;;
72559;SDS011;62987;52.382;9.752;2024-02-04T14:08:09;3.13;;;1.15;;
72559;SDS011;62987;52.382;9.752;2024-02-04T14:10:39;2.38;;;1.00;;
72559;SDS011;62987;52.382;9.752;2024-02-04T14:13:08;6.25;;;2.00;;
72559;SDS011;62987;52.382;9.752;2024-02-04T14:15:38;4.38;;;1.20;;
72559;SDS011;62987;52.382;9.752;2024-02-04T14:18:07;5.38;;;1.88;;
72559;SDS011;62987;52.382;9.752;2024-02-04T14:20:36;3.75;;;1.33;;
72559;SDS011;62987;52.382;9.752;2024-02-04T14:23:05;2.88;;;1.17;;
72559;SDS011;62987;52.382;9.752;2024-02-04T14:25:33;4.70;;;1.65;;
72559;SDS011;62987;52.382;9.752;2024-02-04T14:28:03;4.43;;;2.05;;
72559;SDS011;62987;52.382;9.752;2024-02-04T14:30:32;5.90;;;1.45;;
72559;SDS011;62987;52.382;9.752;2024-02-04T14:33:00;4.03;;;1.77;;
72559;SDS011;62987;52.382;9.752;2024-02-04T14:35:30;6.22;;;1.83;;
72559;SDS011;62987;52.382;9.752;2024-02-04T14:37:58;3.03;;;1.10;;
72559;SDS011;62987;52.382;9.752;2024-02-04T14:40:27;3.65;;;1.33;;
72559;SDS011;62987;52.382;9.752;2024-02-04T14:42:56;4.65;;;1.60;;
72559;SDS011;62987;52.382;9.752;2024-02-04T14:45:26;4.05;;;1.60;;
72559;SDS011;62987;52.382;9.752;2024-02-04T14:47:55;4.72;;;1.55;;
72559;SDS011;62987;52.382;9.752;2024-02-04T14:50:24;4.68;;;1.85;;
72559;SDS011;62987;52.382;9.752;2024-02-04T14:52:52;3.67;;;1.50;;
72559;SDS011;62987;52.382;9.752;2024-02-04T14:55:22;3.58;;;1.88;;
72559;SDS011;62987;52.382;9.752;2024-02-04T14:57:52;5.20;;;2.97;;
72559;SDS011;62987;52.382;9.752;2024-02-04T15:00:20;5.43;;;2.00;;
72559;SDS011;62987;52.382;9.752;2024-02-04T15:02:53;4.93;;;1.60;;
72559;SDS011;62987;52.382;9.752;2024-02-04T15:05:22;8.38;;;2.13;;
72559;SDS011;62987;52.382;9.752;2024-02-04T15:07:50;4.60;;;1.70;;
72559;SDS011;62987;52.382;9.752;2024-02-04T15:10:19;4.38;;;1.88;;
72559;SDS011;62987;52.382;9.752;2024-02-04T15:12:48;4.97;;;1.90;;
72559;SDS011;62987;52.382;9.752;2024-02-04T15:15:20;3.88;;;1.70;;